sensor_id;sensor_type;location;lat;lon;timestamp;pressure;altitude;pressure_sealevel;temperature;humidity
50310;BME280;36207;51.850;21.698;2022-10-15T00:01:56;99937.42;;;10.27;74.20
50310;BME280;36207;51.850;21.698;2022-10-15T00:04:22;99937.08;;;10.29;74.25
50310;BME280;36207;51.850;21.698;2022-10-15T00:06:48;99932.83;;;10.32;74.29
50310;BME280;36207;51.850;21.698;2022-10-15T00:09:14;99930.19;;;10.34;74.66
50310;BME280;36207;51.850;21.698;2022-10-15T00:11:41;99928.41;;;10.33;74.54
50310;BME280;36207;51.850;21.698;2022-10-15T00:14:07;99926.23;;;10.33;74.52
50310;BME280;36207;51.850;21.698;2022-10-15T00:16:33;99925.45;;;10.34;74.75
50310;BME280;36207;51.850;21.698;2022-10-15T00:18:59;99924.05;;;10.36;74.85
50310;BME280;36207;51.850;21.698;2022-10-15T00:21:26;99923.64;;;10.36;74.82
50310;BME280;36207;51.850;21.698;2022-10-15T00:23:52;99927.63;;;10.35;74.75
50310;BME280;36207;51.850;21.698;2022-10-15T00:26:21;99921.75;;;10.35;74.92
50310;BME280;36207;51.850;21.698;2022-10-15T00:28:49;99919.59;;;10.39;74.70
50310;BME280;36207;51.850;21.698;2022-10-15T00:31:16;99918.02;;;10.38;74.69
50310;BME280;36207;51.850;21.698;2022-10-15T00:33:43;99917.48;;;10.40;74.40
50310;BME280;36207;51.850;21.698;2022-10-15T00:36:15;99915.71;;;10.40;74.35
50310;BME280;36207;51.850;21.698;2022-10-15T00:38:42;99915.50;;;10.37;74.22
50310;BME280;36207;51.850;21.698;2022-10-15T00:41:19;99916.42;;;10.29;74.17
50310;BME280;36207;51.850;21.698;2022-10-15T00:43:51;99915.41;;;10.24;74.09
50310;BME280;36207;51.850;21.698;2022-10-15T00:46:30;99912.33;;;10.21;74.12
50310;BME280;36207;51.850;21.698;2022-10-15T00:51:41;99915.12;;;10.23;74.36
50310;BME280;36207;51.850;21.698;2022-10-15T00:54:09;99917.80;;;10.20;74.23
50310;BME280;36207;51.850;21.698;2022-10-15T00:56:38;99915.69;;;10.14;74.15
50310;BME280;36207;51.850;21.698;2022-10-15T00:59:05;99914.77;;;10.08;73.89
50310;BME280;36207;51.850;21.698;2022-10-15T01:01:32;99911.25;;;10.01;73.56
50310;BME280;36207;51.850;21.698;2022-10-15T01:03:59;99910.77;;;9.96;73.67
50310;BME280;36207;51.850;21.698;2022-10-15T01:06:26;99910.39;;;9.95;74.14
50310;BME280;36207;51.850;21.698;2022-10-15T01:08:53;99909.98;;;9.96;74.19
50310;BME280;36207;51.850;21.698;2022-10-15T01:11:27;99905.15;;;9.96;74.00
50310;BME280;36207;51.850;21.698;2022-10-15T01:19:36;99902.04;;;9.78;73.90
50310;BME280;36207;51.850;21.698;2022-10-15T01:24:44;99903.61;;;9.77;74.01
50310;BME280;36207;51.850;21.698;2022-10-15T01:27:31;99904.52;;;9.75;74.21
50310;BME280;36207;51.850;21.698;2022-10-15T01:30:19;99901.67;;;9.72;74.21
50310;BME280;36207;51.850;21.698;2022-10-15T01:35:36;99896.04;;;9.67;74.33
50310;BME280;36207;51.850;21.698;2022-10-15T01:38:48;99893.04;;;9.67;74.39
50310;BME280;36207;51.850;21.698;2022-10-15T01:41:26;99890.87;;;9.62;74.19
50310;BME280;36207;51.850;21.698;2022-10-15T01:44:03;99890.66;;;9.58;74.20
50310;BME280;36207;51.850;21.698;2022-10-15T01:46:40;99888.27;;;9.52;74.39
50310;BME280;36207;51.850;21.698;2022-10-15T01:49:09;99886.83;;;9.48;74.74
50310;BME280;36207;51.850;21.698;2022-10-15T01:51:39;99887.65;;;9.47;74.58
50310;BME280;36207;51.850;21.698;2022-10-15T01:54:11;99889.55;;;9.48;74.59
50310;BME280;36207;51.850;21.698;2022-10-15T01:56:39;99887.44;;;9.52;74.97
50310;BME280;36207;51.850;21.698;2022-10-15T01:59:07;99886.46;;;9.53;75.18
50310;BME280;36207;51.850;21.698;2022-10-15T02:01:35;99881.02;;;9.49;75.24
50310;BME280;36207;51.850;21.698;2022-10-15T02:04:01;99879.33;;;9.48;75.60
50310;BME280;36207;51.850;21.698;2022-10-15T02:06:36;99878.98;;;9.48;75.68
50310;BME280;36207;51.850;21.698;2022-10-15T02:09:24;99882.53;;;9.51;75.66
50310;BME280;36207;51.850;21.698;2022-10-15T02:14:59;99880.11;;;9.55;75.82
50310;BME280;36207;51.850;21.698;2022-10-15T02:17:36;99876.57;;;9.57;75.88
50310;BME280;36207;51.850;21.698;2022-10-15T02:20:13;99875.86;;;9.60;76.07
50310;BME280;36207;51.850;21.698;2022-10-15T02:22:55;99875.88;;;9.68;75.93
50310;BME280;36207;51.850;21.698;2022-10-15T02:25:24;99873.99;;;9.70;75.73
50310;BME280;36207;51.850;21.698;2022-10-15T02:27:54;99872.98;;;9.68;75.98
50310;BME280;36207;51.850;21.698;2022-10-15T02:30:22;99871.18;;;9.67;76.03
50310;BME280;36207;51.850;21.698;2022-10-15T02:32:51;99866.96;;;9.65;76.24
50310;BME280;36207;51.850;21.698;2022-10-15T02:35:19;99867.10;;;9.62;76.29
50310;BME280;36207;51.850;21.698;2022-10-15T02:37:49;99863.30;;;9.61;76.40
50310;BME280;36207;51.850;21.698;2022-10-15T02:40:18;99861.74;;;9.60;76.31
50310;BME280;36207;51.850;21.698;2022-10-15T02:42:48;99861.30;;;9.58;76.12
50310;BME280;36207;51.850;21.698;2022-10-15T02:45:15;99857.10;;;9.58;75.97
50310;BME280;36207;51.850;21.698;2022-10-15T02:47:41;99855.13;;;9.59;75.92
50310;BME280;36207;51.850;21.698;2022-10-15T02:50:08;99856.40;;;9.59;75.60
50310;BME280;36207;51.850;21.698;2022-10-15T02:52:34;99856.73;;;9.58;75.56
50310;BME280;36207;51.850;21.698;2022-10-15T02:55:00;99856.95;;;9.54;75.67
50310;BME280;36207;51.850;21.698;2022-10-15T02:57:26;99856.60;;;9.48;75.79
50310;BME280;36207;51.850;21.698;2022-10-15T02:59:52;99858.03;;;9.45;76.02
50310;BME280;36207;51.850;21.698;2022-10-15T03:02:18;99857.78;;;9.46;76.08
50310;BME280;36207;51.850;21.698;2022-10-15T03:04:45;99857.97;;;9.47;75.79
50310;BME280;36207;51.850;21.698;2022-10-15T03:07:11;99853.61;;;9.46;75.39
50310;BME280;36207;51.850;21.698;2022-10-15T03:09:37;99854.48;;;9.43;75.24
50310;BME280;36207;51.850;21.698;2022-10-15T03:12:03;99853.36;;;9.37;75.17
50310;BME280;36207;51.850;21.698;2022-10-15T03:14:29;99851.60;;;9.29;75.20
50310;BME280;36207;51.850;21.698;2022-10-15T03:16:55;99851.96;;;9.25;75.41
50310;BME280;36207;51.850;21.698;2022-10-15T03:19:22;99850.84;;;9.24;75.69
50310;BME280;36207;51.850;21.698;2022-10-15T03:21:48;99845.29;;;9.23;75.86
50310;BME280;36207;51.850;21.698;2022-10-15T03:24:14;99845.33;;;9.21;75.89
50310;BME280;36207;51.850;21.698;2022-10-15T03:26:40;99847.60;;;9.20;75.61
50310;BME280;36207;51.850;21.698;2022-10-15T03:29:06;99847.48;;;9.17;75.43
50310;BME280;36207;51.850;21.698;2022-10-15T03:31:32;99850.69;;;9.12;75.28
50310;BME280;36207;51.850;21.698;2022-10-15T03:33:58;99846.95;;;9.10;75.35
50310;BME280;36207;51.850;21.698;2022-10-15T03:36:24;99850.56;;;9.10;75.21
50310;BME280;36207;51.850;21.698;2022-10-15T03:38:50;99851.19;;;9.07;74.78
50310;BME280;36207;51.850;21.698;2022-10-15T03:41:16;99852.67;;;9.00;75.06
50310;BME280;36207;51.850;21.698;2022-10-15T03:43:43;99853.68;;;8.92;75.87
50310;BME280;36207;51.850;21.698;2022-10-15T03:46:09;99856.33;;;8.86;76.06
50310;BME280;36207;51.850;21.698;2022-10-15T03:48:35;99857.36;;;8.86;76.42
50310;BME280;36207;51.850;21.698;2022-10-15T03:51:01;99853.55;;;8.92;76.29
50310;BME280;36207;51.850;21.698;2022-10-15T03:53:27;99853.89;;;8.99;76.30
50310;BME280;36207;51.850;21.698;2022-10-15T03:55:53;99855.40;;;9.03;76.20
50310;BME280;36207;51.850;21.698;2022-10-15T03:58:19;99856.20;;;9.03;75.62
50310;BME280;36207;51.850;21.698;2022-10-15T04:00:46;99857.81;;;9.00;75.26
50310;BME280;36207;51.850;21.698;2022-10-15T04:03:13;99860.06;;;8.96;75.28
50310;BME280;36207;51.850;21.698;2022-10-15T04:05:39;99858.10;;;8.94;75.41
50310;BME280;36207;51.850;21.698;2022-10-15T04:08:05;99856.20;;;8.95;75.56
50310;BME280;36207;51.850;21.698;2022-10-15T04:10:31;99853.95;;;8.95;75.74
50310;BME280;36207;51.850;21.698;2022-10-15T04:12:58;99857.77;;;8.94;75.84
50310;BME280;36207;51.850;21.698;2022-10-15T04:15:24;99852.34;;;8.93;76.12
50310;BME280;36207;51.850;21.698;2022-10-15T04:17:54;99857.21;;;8.91;76.09
50310;BME280;36207;51.850;21.698;2022-10-15T04:20:21;99854.73;;;8.91;76.24
50310;BME280;36207;51.850;21.698;2022-10-15T04:22:47;99852.81;;;8.92;76.37
50310;BME280;36207;51.850;21.698;2022-10-15T04:25:13;99853.67;;;8.94;76.28
50310;BME280;36207;51.850;21.698;2022-10-15T04:27:40;99850.38;;;8.95;76.10
50310;BME280;36207;51.850;21.698;2022-10-15T04:30:06;99844.84;;;8.93;75.76
50310;BME280;36207;51.850;21.698;2022-10-15T04:32:32;99842.90;;;8.92;75.83
50310;BME280;36207;51.850;21.698;2022-10-15T04:34:59;99847.58;;;8.93;76.02
50310;BME280;36207;51.850;21.698;2022-10-15T04:37:25;99843.70;;;8.96;76.07
50310;BME280;36207;51.850;21.698;2022-10-15T04:39:51;99839.30;;;8.99;76.30
50310;BME280;36207;51.850;21.698;2022-10-15T04:42:17;99830.19;;;8.98;76.88
50310;BME280;36207;51.850;21.698;2022-10-15T04:44:43;99828.27;;;8.97;77.21
50310;BME280;36207;51.850;21.698;2022-10-15T04:47:09;99832.85;;;8.96;77.34
50310;BME280;36207;51.850;21.698;2022-10-15T04:49:35;99832.26;;;8.95;77.75
50310;BME280;36207;51.850;21.698;2022-10-15T04:52:01;99830.55;;;8.91;78.15
50310;BME280;36207;51.850;21.698;2022-10-15T04:54:27;99834.61;;;8.90;78.49
50310;BME280;36207;51.850;21.698;2022-10-15T04:56:54;99837.10;;;8.93;78.49
50310;BME280;36207;51.850;21.698;2022-10-15T04:59:20;99836.25;;;8.96;79.00
50310;BME280;36207;51.850;21.698;2022-10-15T05:01:49;99837.52;;;8.94;79.21
50310;BME280;36207;51.850;21.698;2022-10-15T05:04:16;99840.20;;;8.92;79.75
50310;BME280;36207;51.850;21.698;2022-10-15T05:06:43;99835.66;;;8.93;79.10
50310;BME280;36207;51.850;21.698;2022-10-15T05:09:09;99835.16;;;9.02;79.03
50310;BME280;36207;51.850;21.698;2022-10-15T05:11:36;99836.11;;;9.11;79.05
50310;BME280;36207;51.850;21.698;2022-10-15T05:14:06;99838.50;;;9.22;79.23
50310;BME280;36207;51.850;21.698;2022-10-15T05:16:32;99837.45;;;9.29;78.97
50310;BME280;36207;51.850;21.698;2022-10-15T05:19:04;99839.84;;;9.38;78.71
50310;BME280;36207;51.850;21.698;2022-10-15T05:21:32;99838.84;;;9.48;78.62
50310;BME280;36207;51.850;21.698;2022-10-15T05:23:59;99839.90;;;9.61;78.98
50310;BME280;36207;51.850;21.698;2022-10-15T05:26:27;99839.84;;;9.67;79.28
50310;BME280;36207;51.850;21.698;2022-10-15T05:28:58;99839.95;;;9.71;79.02
50310;BME280;36207;51.850;21.698;2022-10-15T05:31:26;99836.52;;;9.76;79.05
50310;BME280;36207;51.850;21.698;2022-10-15T05:33:54;99835.50;;;9.83;78.95
50310;BME280;36207;51.850;21.698;2022-10-15T05:36:26;99833.20;;;9.83;79.65
50310;BME280;36207;51.850;21.698;2022-10-15T05:41:20;99833.59;;;9.93;79.66
50310;BME280;36207;51.850;21.698;2022-10-15T05:43:51;99834.68;;;9.93;79.56
50310;BME280;36207;51.850;21.698;2022-10-15T05:46:18;99833.25;;;10.01;79.21
50310;BME280;36207;51.850;21.698;2022-10-15T05:48:52;99831.23;;;10.03;80.01
50310;BME280;36207;51.850;21.698;2022-10-15T05:51:18;99831.89;;;10.00;80.22
50310;BME280;36207;51.850;21.698;2022-10-15T05:53:44;99830.41;;;9.98;79.91
50310;BME280;36207;51.850;21.698;2022-10-15T05:56:15;99830.54;;;10.02;80.00
50310;BME280;36207;51.850;21.698;2022-10-15T05:58:41;99831.44;;;10.07;79.85
50310;BME280;36207;51.850;21.698;2022-10-15T06:01:10;99829.48;;;10.11;80.31
50310;BME280;36207;51.850;21.698;2022-10-15T06:03:39;99833.07;;;10.14;80.17
50310;BME280;36207;51.850;21.698;2022-10-15T06:06:16;99826.42;;;10.20;80.10
50310;BME280;36207;51.850;21.698;2022-10-15T06:08:43;99827.53;;;10.28;79.84
50310;BME280;36207;51.850;21.698;2022-10-15T06:11:09;99828.81;;;10.42;79.63
50310;BME280;36207;51.850;21.698;2022-10-15T06:13:40;99835.98;;;10.53;79.66
50310;BME280;36207;51.850;21.698;2022-10-15T06:16:07;99838.05;;;10.63;79.62
50310;BME280;36207;51.850;21.698;2022-10-15T06:18:35;99843.17;;;10.73;79.64
50310;BME280;36207;51.850;21.698;2022-10-15T06:21:09;99844.55;;;10.90;79.92
50310;BME280;36207;51.850;21.698;2022-10-15T06:23:36;99842.63;;;11.03;79.83
50310;BME280;36207;51.850;21.698;2022-10-15T06:26:07;99853.52;;;11.16;80.19
50310;BME280;36207;51.850;21.698;2022-10-15T06:28:35;99854.05;;;11.31;79.97
50310;BME280;36207;51.850;21.698;2022-10-15T06:31:02;99855.24;;;11.47;80.28
50310;BME280;36207;51.850;21.698;2022-10-15T06:33:28;99857.11;;;11.56;80.47
50310;BME280;36207;51.850;21.698;2022-10-15T06:36:00;99859.48;;;11.57;80.34
50310;BME280;36207;51.850;21.698;2022-10-15T06:38:26;99863.09;;;11.66;80.25
50310;BME280;36207;51.850;21.698;2022-10-15T06:40:53;99864.38;;;11.75;80.21
50310;BME280;36207;51.850;21.698;2022-10-15T06:43:19;99859.06;;;11.83;80.25
50310;BME280;36207;51.850;21.698;2022-10-15T06:45:45;99860.53;;;11.97;80.29
50310;BME280;36207;51.850;21.698;2022-10-15T06:48:11;99858.13;;;12.17;80.41
50310;BME280;36207;51.850;21.698;2022-10-15T06:50:38;99857.77;;;12.46;80.47
50310;BME280;36207;51.850;21.698;2022-10-15T06:53:05;99857.34;;;12.75;80.11
50310;BME280;36207;51.850;21.698;2022-10-15T06:55:31;99855.15;;;12.98;79.50
50310;BME280;36207;51.850;21.698;2022-10-15T06:57:57;99849.80;;;13.08;78.69
50310;BME280;36207;51.850;21.698;2022-10-15T07:00:24;99855.05;;;13.15;78.70
50310;BME280;36207;51.850;21.698;2022-10-15T07:02:51;99858.38;;;13.30;78.60
50310;BME280;36207;51.850;21.698;2022-10-15T07:05:18;99856.54;;;13.43;77.97
50310;BME280;36207;51.850;21.698;2022-10-15T07:07:55;99858.55;;;13.45;77.77
50310;BME280;36207;51.850;21.698;2022-10-15T07:10:22;99863.54;;;13.41;77.39
50310;BME280;36207;51.850;21.698;2022-10-15T07:12:49;99870.90;;;13.21;77.06
50310;BME280;36207;51.850;21.698;2022-10-15T07:15:16;99874.91;;;12.97;77.40
50310;BME280;36207;51.850;21.698;2022-10-15T07:17:49;99875.38;;;12.88;78.08
50310;BME280;36207;51.850;21.698;2022-10-15T07:20:16;99875.85;;;12.80;78.21
50310;BME280;36207;51.850;21.698;2022-10-15T07:22:43;99874.64;;;12.79;78.60
50310;BME280;36207;51.850;21.698;2022-10-15T07:25:09;99872.79;;;12.85;78.53
50310;BME280;36207;51.850;21.698;2022-10-15T07:27:36;99875.08;;;12.97;78.54
50310;BME280;36207;51.850;21.698;2022-10-15T07:30:04;99871.67;;;13.10;78.56
50310;BME280;36207;51.850;21.698;2022-10-15T07:32:30;99874.94;;;13.12;78.44
50310;BME280;36207;51.850;21.698;2022-10-15T07:34:56;99874.42;;;13.17;78.64
50310;BME280;36207;51.850;21.698;2022-10-15T07:37:22;99874.45;;;13.41;79.07
50310;BME280;36207;51.850;21.698;2022-10-15T07:39:48;99872.04;;;13.53;78.31
50310;BME280;36207;51.850;21.698;2022-10-15T07:42:14;99866.05;;;13.65;78.18
50310;BME280;36207;51.850;21.698;2022-10-15T07:44:41;99867.67;;;13.83;77.92
50310;BME280;36207;51.850;21.698;2022-10-15T07:47:07;99872.86;;;13.99;77.60
50310;BME280;36207;51.850;21.698;2022-10-15T07:49:33;99873.71;;;14.23;77.39
50310;BME280;36207;51.850;21.698;2022-10-15T07:51:59;99871.45;;;14.47;76.89
50310;BME280;36207;51.850;21.698;2022-10-15T07:54:25;99871.77;;;14.67;76.56
50310;BME280;36207;51.850;21.698;2022-10-15T07:56:51;99868.96;;;14.89;76.26
50310;BME280;36207;51.850;21.698;2022-10-15T07:59:18;99866.36;;;15.00;75.78
50310;BME280;36207;51.850;21.698;2022-10-15T08:01:44;99864.76;;;14.93;74.85
50310;BME280;36207;51.850;21.698;2022-10-15T08:04:10;99865.79;;;14.80;75.68
50310;BME280;36207;51.850;21.698;2022-10-15T08:06:36;99870.39;;;14.74;75.77
50310;BME280;36207;51.850;21.698;2022-10-15T08:09:04;99876.16;;;14.63;75.16
50310;BME280;36207;51.850;21.698;2022-10-15T08:11:36;99876.27;;;14.48;75.35
50310;BME280;36207;51.850;21.698;2022-10-15T08:14:02;99873.84;;;14.31;75.41
50310;BME280;36207;51.850;21.698;2022-10-15T08:16:29;99870.54;;;14.24;75.85
50310;BME280;36207;51.850;21.698;2022-10-15T08:18:56;99867.56;;;14.28;76.01
50310;BME280;36207;51.850;21.698;2022-10-15T08:21:24;99866.19;;;14.51;76.60
50310;BME280;36207;51.850;21.698;2022-10-15T08:23:50;99866.75;;;14.71;75.88
50310;BME280;36207;51.850;21.698;2022-10-15T08:26:17;99870.67;;;14.78;75.21
50310;BME280;36207;51.850;21.698;2022-10-15T08:28:43;99870.59;;;14.78;75.28
50310;BME280;36207;51.850;21.698;2022-10-15T08:31:10;99870.48;;;14.88;74.74
50310;BME280;36207;51.850;21.698;2022-10-15T08:33:37;99866.73;;;14.96;74.92
50310;BME280;36207;51.850;21.698;2022-10-15T08:36:04;99861.02;;;15.12;74.53
50310;BME280;36207;51.850;21.698;2022-10-15T08:38:32;99860.42;;;15.17;73.96
50310;BME280;36207;51.850;21.698;2022-10-15T08:41:00;99862.06;;;15.11;73.63
50310;BME280;36207;51.850;21.698;2022-10-15T08:45:55;99864.13;;;14.87;73.51
50310;BME280;36207;51.850;21.698;2022-10-15T08:48:33;99867.52;;;14.76;73.47
50310;BME280;36207;51.850;21.698;2022-10-15T08:53:46;99868.23;;;14.57;74.25
50310;BME280;36207;51.850;21.698;2022-10-15T08:56:38;99868.06;;;14.63;74.39
50310;BME280;36207;51.850;21.698;2022-10-15T09:02:00;99867.48;;;14.62;73.65
50310;BME280;36207;51.850;21.698;2022-10-15T09:04:40;99867.89;;;14.56;73.58
50310;BME280;36207;51.850;21.698;2022-10-15T09:07:20;99868.71;;;14.48;73.56
50310;BME280;36207;51.850;21.698;2022-10-15T09:09:55;99865.98;;;14.43;73.77
50310;BME280;36207;51.850;21.698;2022-10-15T09:15:27;99865.38;;;14.53;74.35
50310;BME280;36207;51.850;21.698;2022-10-15T09:17:56;99862.89;;;14.62;73.79
50310;BME280;36207;51.850;21.698;2022-10-15T09:20:32;99859.83;;;14.65;73.74
50310;BME280;36207;51.850;21.698;2022-10-15T09:22:58;99857.13;;;14.69;73.55
50310;BME280;36207;51.850;21.698;2022-10-15T09:25:31;99860.15;;;14.71;73.57
50310;BME280;36207;51.850;21.698;2022-10-15T09:28:09;99857.04;;;14.76;73.79
50310;BME280;36207;51.850;21.698;2022-10-15T09:39:14;99861.70;;;14.92;72.48
50310;BME280;36207;51.850;21.698;2022-10-15T09:44:16;99849.26;;;15.05;72.12
50310;BME280;36207;51.850;21.698;2022-10-15T09:46:45;99848.15;;;15.23;72.45
50310;BME280;36207;51.850;21.698;2022-10-15T09:49:17;99854.05;;;15.46;72.46
50310;BME280;36207;51.850;21.698;2022-10-15T09:52:07;99858.03;;;15.70;71.89
50310;BME280;36207;51.850;21.698;2022-10-15T09:57:15;99855.77;;;16.11;69.82
50310;BME280;36207;51.850;21.698;2022-10-15T09:59:59;99859.30;;;16.16;69.59
50310;BME280;36207;51.850;21.698;2022-10-15T10:02:28;99858.09;;;16.13;68.90
50310;BME280;36207;51.850;21.698;2022-10-15T10:04:55;99865.81;;;16.15;69.10
50310;BME280;36207;51.850;21.698;2022-10-15T10:10:23;99859.96;;;15.99;68.93
50310;BME280;36207;51.850;21.698;2022-10-15T10:12:47;99850.17;;;16.00;69.97
50310;BME280;36207;51.850;21.698;2022-10-15T10:15:34;99846.69;;;16.07;69.79
50310;BME280;36207;51.850;21.698;2022-10-15T10:18:02;99845.91;;;16.16;69.64
50310;BME280;36207;51.850;21.698;2022-10-15T10:20:33;99839.99;;;16.29;69.90
50310;BME280;36207;51.850;21.698;2022-10-15T10:23:01;99838.27;;;16.37;68.91
50310;BME280;36207;51.850;21.698;2022-10-15T10:25:34;99833.17;;;16.41;68.23
50310;BME280;36207;51.850;21.698;2022-10-15T10:30:57;99833.84;;;16.49;67.41
50310;BME280;36207;51.850;21.698;2022-10-15T10:33:32;99834.73;;;16.60;67.61
50310;BME280;36207;51.850;21.698;2022-10-15T10:36:00;99835.67;;;16.68;67.00
50310;BME280;36207;51.850;21.698;2022-10-15T10:38:38;99836.83;;;16.74;66.92
50310;BME280;36207;51.850;21.698;2022-10-15T10:41:10;99837.19;;;16.78;67.35
50310;BME280;36207;51.850;21.698;2022-10-15T10:43:51;99837.17;;;16.80;67.09
50310;BME280;36207;51.850;21.698;2022-10-15T10:46:20;99839.87;;;16.80;66.62
50310;BME280;36207;51.850;21.698;2022-10-15T10:48:51;99834.08;;;16.77;66.46
50310;BME280;36207;51.850;21.698;2022-10-15T10:51:23;99835.59;;;16.74;66.35
50310;BME280;36207;51.850;21.698;2022-10-15T10:54:02;99836.40;;;16.66;65.77
50310;BME280;36207;51.850;21.698;2022-10-15T10:56:33;99831.92;;;16.59;66.37
50310;BME280;36207;51.850;21.698;2022-10-15T10:59:14;99829.40;;;16.53;66.81
50310;BME280;36207;51.850;21.698;2022-10-15T11:01:41;99826.81;;;16.46;66.77
50310;BME280;36207;51.850;21.698;2022-10-15T11:04:25;99829.36;;;16.41;67.14
50310;BME280;36207;51.850;21.698;2022-10-15T11:15:57;99827.95;;;16.21;67.08
50310;BME280;36207;51.850;21.698;2022-10-15T11:19:07;99830.46;;;16.19;67.00
50310;BME280;36207;51.850;21.698;2022-10-15T11:22:08;99830.79;;;16.20;67.58
50310;BME280;36207;51.850;21.698;2022-10-15T11:25:13;99831.21;;;16.24;67.43
50310;BME280;36207;51.850;21.698;2022-10-15T11:30:39;99828.24;;;16.22;67.43
50310;BME280;36207;51.850;21.698;2022-10-15T11:58:45;99811.46;;;16.75;65.32
50310;BME280;36207;51.850;21.698;2022-10-15T12:01:17;99809.60;;;16.78;65.34
50310;BME280;36207;51.850;21.698;2022-10-15T12:03:55;99806.48;;;16.77;65.24
50310;BME280;36207;51.850;21.698;2022-10-15T12:06:25;99807.52;;;16.76;65.16
50310;BME280;36207;51.850;21.698;2022-10-15T12:08:54;99812.41;;;16.71;63.96
50310;BME280;36207;51.850;21.698;2022-10-15T12:11:47;99813.13;;;16.66;63.99
50310;BME280;36207;51.850;21.698;2022-10-15T12:17:19;99811.23;;;16.61;63.53
50310;BME280;36207;51.850;21.698;2022-10-15T12:19:52;99805.46;;;16.59;64.12
50310;BME280;36207;51.850;21.698;2022-10-15T12:22:33;99806.13;;;16.61;64.67
50310;BME280;36207;51.850;21.698;2022-10-15T12:25:01;99808.95;;;16.62;64.55
50310;BME280;36207;51.850;21.698;2022-10-15T12:27:35;99808.64;;;16.64;64.85
50310;BME280;36207;51.850;21.698;2022-10-15T12:32:42;99814.35;;;16.66;64.14
50310;BME280;36207;51.850;21.698;2022-10-15T12:37:45;99804.70;;;16.71;64.62
50310;BME280;36207;51.850;21.698;2022-10-15T12:43:03;99806.66;;;16.77;64.11
50310;BME280;36207;51.850;21.698;2022-10-15T12:45:38;99803.98;;;16.76;64.33
50310;BME280;36207;51.850;21.698;2022-10-15T12:50:35;99799.08;;;16.99;64.69
50310;BME280;36207;51.850;21.698;2022-10-15T12:58:54;99790.88;;;17.29;64.08
50310;BME280;36207;51.850;21.698;2022-10-15T13:08:53;99790.67;;;17.50;62.60
50310;BME280;36207;51.850;21.698;2022-10-15T13:11:24;99788.30;;;17.47;63.21
50310;BME280;36207;51.850;21.698;2022-10-15T13:14:01;99788.23;;;17.51;63.16
50310;BME280;36207;51.850;21.698;2022-10-15T13:16:28;99787.33;;;17.57;62.88
50310;BME280;36207;51.850;21.698;2022-10-15T13:18:56;99792.27;;;17.63;62.68
50310;BME280;36207;51.850;21.698;2022-10-15T13:21:51;99787.14;;;17.63;62.14
50310;BME280;36207;51.850;21.698;2022-10-15T13:24:25;99788.36;;;17.56;62.18
50310;BME280;36207;51.850;21.698;2022-10-15T13:26:54;99787.77;;;17.50;62.22
50310;BME280;36207;51.850;21.698;2022-10-15T13:29:23;99791.45;;;17.47;62.59
50310;BME280;36207;51.850;21.698;2022-10-15T13:31:52;99789.64;;;17.45;62.65
50310;BME280;36207;51.850;21.698;2022-10-15T13:34:31;99788.66;;;17.45;62.92
50310;BME280;36207;51.850;21.698;2022-10-15T13:36:59;99790.88;;;17.45;62.80
50310;BME280;36207;51.850;21.698;2022-10-15T13:42:22;99788.55;;;17.50;63.17
50310;BME280;36207;51.850;21.698;2022-10-15T13:45:14;99790.71;;;17.55;63.33
50310;BME280;36207;51.850;21.698;2022-10-15T13:47:46;99791.23;;;17.51;63.22
50310;BME280;36207;51.850;21.698;2022-10-15T13:50:22;99790.64;;;17.36;63.20
50310;BME280;36207;51.850;21.698;2022-10-15T13:53:14;99792.40;;;17.20;63.39
50310;BME280;36207;51.850;21.698;2022-10-15T13:55:54;99797.80;;;17.04;63.62
50310;BME280;36207;51.850;21.698;2022-10-15T13:58:27;99798.36;;;16.89;64.01
50310;BME280;36207;51.850;21.698;2022-10-15T14:01:08;99797.44;;;16.83;64.05
50310;BME280;36207;51.850;21.698;2022-10-15T14:03:36;99799.80;;;16.80;64.26
50310;BME280;36207;51.850;21.698;2022-10-15T14:06:14;99801.11;;;16.80;64.39
50310;BME280;36207;51.850;21.698;2022-10-15T14:08:42;99800.31;;;16.81;64.41
50310;BME280;36207;51.850;21.698;2022-10-15T14:11:12;99802.80;;;16.77;64.64
50310;BME280;36207;51.850;21.698;2022-10-15T14:13:51;99804.52;;;16.74;64.92
50310;BME280;36207;51.850;21.698;2022-10-15T14:16:31;99804.50;;;16.71;64.87
50310;BME280;36207;51.850;21.698;2022-10-15T14:21:29;99806.45;;;16.64;65.12
50310;BME280;36207;51.850;21.698;2022-10-15T14:24:13;99809.64;;;16.60;65.61
50310;BME280;36207;51.850;21.698;2022-10-15T14:26:40;99811.18;;;16.55;65.50
50310;BME280;36207;51.850;21.698;2022-10-15T14:29:25;99809.02;;;16.55;65.66
50310;BME280;36207;51.850;21.698;2022-10-15T14:31:52;99810.09;;;16.57;65.92
50310;BME280;36207;51.850;21.698;2022-10-15T14:37:02;99808.40;;;16.60;65.85
50310;BME280;36207;51.850;21.698;2022-10-15T14:39:36;99806.78;;;16.60;66.16
50310;BME280;36207;51.850;21.698;2022-10-15T14:42:26;99808.42;;;16.57;66.10
50310;BME280;36207;51.850;21.698;2022-10-15T14:44:52;99806.82;;;16.52;66.17
50310;BME280;36207;51.850;21.698;2022-10-15T14:47:25;99805.04;;;16.43;66.35
50310;BME280;36207;51.850;21.698;2022-10-15T14:49:54;99802.92;;;16.34;66.50
50310;BME280;36207;51.850;21.698;2022-10-15T14:52:23;99802.59;;;16.27;66.80
50310;BME280;36207;51.850;21.698;2022-10-15T14:55:05;99803.27;;;16.21;67.00
50310;BME280;36207;51.850;21.698;2022-10-15T14:57:37;99802.05;;;16.18;66.99
50310;BME280;36207;51.850;21.698;2022-10-15T15:02:39;99812.80;;;16.11;67.43
50310;BME280;36207;51.850;21.698;2022-10-15T15:07:39;99815.90;;;16.01;67.66
50310;BME280;36207;51.850;21.698;2022-10-15T15:10:08;99816.91;;;15.99;67.71
50310;BME280;36207;51.850;21.698;2022-10-15T15:12:35;99816.05;;;15.99;67.63
50310;BME280;36207;51.850;21.698;2022-10-15T15:15:04;99819.85;;;16.00;67.87
50310;BME280;36207;51.850;21.698;2022-10-15T15:17:31;99823.02;;;15.98;67.75